createdAt,value
2018-06-08T00:01:28.661Z,74.07
2018-06-08T00:03:57.464Z,73.70
2018-06-08T00:06:26.240Z,73.21
2018-06-08T00:08:55.628Z,73.35
2018-06-08T00:11:24.380Z,73.97
2018-06-08T00:13:53.145Z,74.35
2018-06-08T00:16:21.890Z,74.18
2018-06-08T00:18:50.645Z,74.21
2018-06-08T00:21:19.404Z,73.90
2018-06-08T00:23:48.180Z,74.45
2018-06-08T00:26:17.121Z,74.70
2018-06-08T00:28:45.872Z,73.64
2018-06-08T00:31:14.729Z,73.74
2018-06-08T00:33:43.515Z,74.02
2018-06-08T00:36:12.257Z,73.90
2018-06-08T00:38:41.054Z,74.24
2018-06-08T00:41:09.836Z,74.47
2018-06-08T00:43:38.767Z,74.98
2018-06-08T00:46:07.668Z,75.01
2018-06-08T00:48:36.438Z,75.57
2018-06-08T00:51:05.194Z,75.83
2018-06-08T00:53:34.026Z,75.81
2018-06-08T00:56:02.799Z,75.85
2018-06-08T00:58:31.549Z,75.22
2018-06-08T01:01:00.352Z,75.18
2018-06-08T01:03:29.111Z,74.77
2018-06-08T01:05:57.904Z,74.48
2018-06-08T01:08:26.677Z,74.50
2018-06-08T01:10:55.431Z,74.20
2018-06-08T01:13:24.219Z,74.48
2018-06-08T01:15:53.055Z,74.88
2018-06-08T01:18:21.838Z,75.16
2018-06-08T01:20:50.645Z,74.81
2018-06-08T01:23:19.391Z,75.10
2018-06-08T01:25:48.178Z,75.08
2018-06-08T01:28:16.928Z,75.21
2018-06-08T01:30:45.707Z,75.67
2018-06-08T01:33:14.454Z,75.47
2018-06-08T01:35:43.195Z,75.54
2018-06-08T01:38:12.052Z,75.68
2018-06-08T01:40:40.787Z,75.70
2018-06-08T01:43:09.527Z,76.17
2018-06-08T01:45:38.301Z,76.02
2018-06-08T01:48:07.063Z,76.55
2018-06-08T01:50:35.835Z,76.72
2018-06-08T01:53:04.619Z,76.65
2018-06-08T01:55:33.381Z,76.50
2018-06-08T01:58:02.200Z,77.07
2018-06-08T02:00:31.057Z,76.94
2018-06-08T02:02:59.801Z,76.65
2018-06-08T02:05:28.553Z,76.81
2018-06-08T02:07:57.345Z,76.70
2018-06-08T02:10:26.096Z,76.47
2018-06-08T02:12:54.867Z,76.52
2018-06-08T02:15:23.619Z,76.44
2018-06-08T02:17:52.387Z,76.78
2018-06-08T02:20:21.162Z,76.65
2018-06-08T02:22:49.963Z,77.05
2018-06-08T02:25:18.743Z,76.95
2018-06-08T02:27:47.514Z,77.88
2018-06-08T02:30:16.298Z,75.64
2018-06-08T02:32:45.077Z,74.79
2018-06-08T02:35:13.860Z,74.89
2018-06-08T02:37:42.602Z,75.19
2018-06-08T02:40:11.372Z,75.52
2018-06-08T02:42:40.143Z,75.39
2018-06-08T02:45:09.068Z,75.85
2018-06-08T02:47:37.814Z,75.93
2018-06-08T02:50:06.592Z,75.95
2018-06-08T02:52:35.360Z,76.03
2018-06-08T02:55:04.194Z,76.16
2018-06-08T02:57:32.952Z,75.97
2018-06-08T03:00:01.709Z,76.15
2018-06-08T03:02:30.463Z,75.83
2018-06-08T03:04:59.221Z,74.27
2018-06-08T03:07:28.089Z,71.86
2018-06-08T03:09:56.843Z,70.44
2018-06-08T03:12:25.651Z,68.40
2018-06-08T03:14:54.397Z,66.21
2018-06-08T03:17:23.161Z,64.51
2018-06-08T03:19:51.886Z,63.53
2018-06-08T03:22:20.632Z,61.67
2018-06-08T03:24:50.074Z,60.40
2018-06-08T03:27:18.840Z,58.64
2018-06-08T03:29:47.712Z,57.18
2018-06-08T03:32:16.471Z,55.67
2018-06-08T03:34:45.235Z,54.75
2018-06-08T03:37:14.009Z,53.49
2018-06-08T03:39:42.804Z,51.69
2018-06-08T03:42:11.587Z,49.58
2018-06-08T03:44:40.336Z,48.17
2018-06-08T03:47:09.087Z,47.17
2018-06-08T03:49:37.830Z,44.43
2018-06-08T03:52:06.759Z,42.37
2018-06-08T03:54:35.516Z,42.21
2018-06-08T03:57:05.278Z,41.54
2018-06-08T03:59:34.032Z,40.76
2018-06-08T04:02:02.812Z,39.39
2018-06-08T04:04:31.566Z,37.71
2018-06-08T04:07:00.539Z,37.59
2018-06-08T04:09:29.346Z,35.85
2018-06-08T04:11:58.155Z,35.43
2018-06-08T04:14:26.917Z,34.04
2018-06-08T04:16:55.659Z,33.46
2018-06-08T04:19:24.402Z,32.91
2018-06-08T04:21:53.138Z,31.94
2018-06-08T04:24:21.919Z,30.67
2018-06-08T04:26:50.680Z,30.66
2018-06-08T04:29:19.459Z,30.16
2018-06-08T04:31:48.217Z,31.43
2018-06-08T04:34:16.985Z,30.08
2018-06-08T04:36:45.841Z,29.49
2018-06-08T04:39:14.590Z,29.55
2018-06-08T04:41:43.344Z,28.15
2018-06-08T04:44:12.092Z,28.40
2018-06-08T04:46:40.868Z,28.36
2018-06-08T04:49:09.683Z,27.55
2018-06-08T04:51:38.481Z,26.39
2018-06-08T04:54:07.255Z,24.99
2018-06-08T04:56:35.999Z,25.44
2018-06-08T04:59:04.879Z,25.12
2018-06-08T05:01:33.637Z,25.76
2018-06-08T05:04:02.426Z,25.68
2018-06-08T05:06:31.205Z,24.50
2018-06-08T05:08:59.982Z,26.07
2018-06-08T05:11:28.751Z,25.40
2018-06-08T05:13:57.484Z,25.36
2018-06-08T05:16:26.322Z,25.34
2018-06-08T05:18:55.075Z,26.32
2018-06-08T05:21:23.863Z,27.78
2018-06-08T05:23:52.621Z,29.32
2018-06-08T05:26:21.393Z,29.84
2018-06-08T05:28:50.204Z,30.94
2018-06-08T05:31:18.964Z,32.75
2018-06-08T05:33:47.766Z,32.97
2018-06-08T05:36:16.570Z,35.40
2018-06-08T05:38:45.320Z,33.95
2018-06-08T05:41:14.116Z,34.60
2018-06-08T05:43:43.000Z,35.44
2018-06-08T05:46:11.794Z,36.42
2018-06-08T05:48:40.611Z,36.89
2018-06-08T05:51:09.372Z,37.12
2018-06-08T05:53:38.166Z,36.79
2018-06-08T05:56:06.901Z,36.15
2018-06-08T05:58:35.642Z,37.17
2018-06-08T06:01:04.548Z,38.59
2018-06-08T06:03:33.327Z,38.95
2018-06-08T06:06:02.171Z,39.25
2018-06-08T06:08:30.963Z,39.83
2018-06-08T06:10:59.779Z,40.64
2018-06-08T06:13:28.541Z,41.53
2018-06-08T06:15:57.302Z,40.93
2018-06-08T06:18:26.061Z,39.89
2018-06-08T06:20:54.849Z,40.51
2018-06-08T06:23:23.639Z,41.15
2018-06-08T06:25:52.397Z,41.74
2018-06-08T06:28:21.171Z,42.10
2018-06-08T06:30:49.983Z,42.72
2018-06-08T06:33:18.722Z,42.65
2018-06-08T06:35:47.484Z,41.29
2018-06-08T06:38:16.265Z,41.93
2018-06-08T06:40:45.024Z,40.20
2018-06-08T06:43:13.801Z,39.86
2018-06-08T06:45:42.598Z,39.51
2018-06-08T06:48:11.373Z,40.25
2018-06-08T06:50:40.197Z,40.48
2018-06-08T06:53:08.998Z,40.57
2018-06-08T06:55:37.794Z,40.98
2018-06-08T06:58:06.570Z,41.36
2018-06-08T07:00:35.319Z,40.96
2018-06-08T07:03:04.061Z,40.39
2018-06-08T07:05:32.846Z,40.31
2018-06-08T07:08:01.621Z,40.75
2018-06-08T07:10:30.411Z,41.02
2018-06-08T07:12:59.195Z,40.64
2018-06-08T07:15:27.990Z,40.20
2018-06-08T07:17:56.756Z,40.75
2018-06-08T07:20:25.536Z,39.44
2018-06-08T07:22:54.291Z,39.16
2018-06-08T07:25:23.045Z,40.49
2018-06-08T07:27:51.863Z,40.38
2018-06-08T07:30:20.839Z,40.73
2018-06-08T07:32:49.615Z,41.11
2018-06-08T07:35:18.428Z,40.53
2018-06-08T07:37:47.213Z,40.69
2018-06-08T07:40:16.061Z,41.95
2018-06-08T07:42:44.834Z,42.08
2018-06-08T07:45:13.599Z,41.16
2018-06-08T07:47:42.387Z,42.43
2018-06-08T07:50:11.158Z,42.29
2018-06-08T07:52:39.946Z,41.69
2018-06-08T07:55:08.705Z,42.45
2018-06-08T07:57:37.524Z,43.33
2018-06-08T08:00:06.285Z,41.24
2018-06-08T08:02:35.063Z,41.92
2018-06-08T08:05:03.977Z,42.50
2018-06-08T08:07:32.743Z,44.42
2018-06-08T08:10:01.537Z,42.50
2018-06-08T08:12:30.330Z,44.51
2018-06-08T08:14:59.138Z,42.84
2018-06-08T08:17:27.898Z,41.96
2018-06-08T08:19:56.729Z,42.04
2018-06-08T08:22:25.510Z,42.16
2018-06-08T08:24:54.291Z,42.30
2018-06-08T08:27:23.062Z,42.84
2018-06-08T08:29:51.848Z,42.18
2018-06-08T08:32:20.619Z,43.13
2018-06-08T08:34:49.371Z,42.95
2018-06-08T08:37:18.157Z,41.41
2018-06-08T08:39:46.932Z,42.33
2018-06-08T08:42:15.783Z,44.50
2018-06-08T08:44:44.546Z,43.94
2018-06-08T08:47:13.381Z,43.84
2018-06-08T08:49:42.180Z,46.21
2018-06-08T08:52:11.018Z,43.37
2018-06-08T08:54:39.820Z,43.27
2018-06-08T08:57:08.671Z,44.57
2018-06-08T08:59:37.408Z,42.86
2018-06-08T09:02:06.306Z,41.95
2018-06-08T09:04:35.102Z,41.60
2018-06-08T09:07:03.914Z,42.21
2018-06-08T09:09:32.682Z,40.05
2018-06-08T09:12:01.463Z,40.41
2018-06-08T09:14:30.215Z,40.89
2018-06-08T09:16:58.991Z,42.22
2018-06-08T09:19:27.751Z,41.95
2018-06-08T09:21:56.567Z,42.40
2018-06-08T09:24:25.341Z,43.13
2018-06-08T09:26:54.193Z,43.12
2018-06-08T09:29:22.963Z,42.94
2018-06-08T09:31:51.755Z,42.16
2018-06-08T09:34:20.536Z,43.25
2018-06-08T09:36:49.318Z,43.24
2018-06-08T09:39:18.055Z,42.73
2018-06-08T09:41:46.838Z,43.75
2018-06-08T09:44:15.590Z,41.50
2018-06-08T09:46:44.351Z,42.80
2018-06-08T09:49:13.208Z,41.91
2018-06-08T09:51:41.970Z,41.15
2018-06-08T09:54:10.818Z,42.80
2018-06-08T09:56:39.623Z,44.02
2018-06-08T09:59:08.418Z,43.71
2018-06-08T10:01:37.256Z,42.99
2018-06-08T10:04:06.189Z,44.50
2018-06-08T10:06:34.975Z,43.65
2018-06-08T10:09:03.920Z,42.76
2018-06-08T10:11:32.747Z,42.30
2018-06-08T10:14:01.679Z,42.51
2018-06-08T10:16:30.445Z,44.38
2018-06-08T10:18:59.212Z,40.67
2018-06-08T10:21:27.996Z,41.55
2018-06-08T10:23:56.779Z,44.46
2018-06-08T10:26:25.549Z,43.99
2018-06-08T10:28:54.306Z,41.08
2018-06-08T10:31:23.104Z,43.54
2018-06-08T10:33:51.950Z,44.08
2018-06-08T10:36:20.722Z,43.40
2018-06-08T10:38:49.483Z,43.94
2018-06-08T10:41:18.742Z,42.57
2018-06-08T10:43:47.545Z,44.76
2018-06-08T10:46:16.321Z,44.10
2018-06-08T10:48:45.104Z,41.95
2018-06-08T10:51:13.888Z,42.61
2018-06-08T10:53:42.679Z,43.10
2018-06-08T10:56:11.487Z,44.41
2018-06-08T10:58:40.252Z,44.53
2018-06-08T11:01:09.050Z,43.12
2018-06-08T11:03:37.826Z,43.92
2018-06-08T11:06:06.612Z,44.70
2018-06-08T11:08:35.401Z,44.06
2018-06-08T11:11:04.215Z,42.72
2018-06-08T11:13:33.006Z,43.41
2018-06-08T11:16:01.763Z,43.76
2018-06-08T11:18:30.570Z,43.93
2018-06-08T11:20:59.331Z,43.85
2018-06-08T11:23:28.096Z,43.58
2018-06-08T11:25:56.862Z,43.36
2018-06-08T11:28:25.652Z,44.59
2018-06-08T11:30:54.438Z,43.16
2018-06-08T11:33:23.216Z,42.84
2018-06-08T11:35:52.004Z,42.33
2018-06-08T11:38:20.861Z,41.81
2018-06-08T11:40:49.693Z,41.69
2018-06-08T11:43:18.469Z,42.92
2018-06-08T11:45:47.280Z,42.56
2018-06-08T11:48:16.071Z,42.69
2018-06-08T11:50:44.832Z,41.44
2018-06-08T11:53:13.640Z,41.96
2018-06-08T11:55:42.425Z,40.35
2018-06-08T11:58:11.222Z,40.46
2018-06-08T12:00:40.041Z,41.73
2018-06-08T12:03:08.911Z,42.24
2018-06-08T12:05:37.670Z,41.42
2018-06-08T12:08:06.462Z,41.71
2018-06-08T12:10:35.224Z,41.42
2018-06-08T12:13:03.983Z,41.15
2018-06-08T12:15:32.750Z,41.26
2018-06-08T12:18:01.518Z,42.27
2018-06-08T12:20:30.282Z,41.72
2018-06-08T12:22:59.044Z,41.22
2018-06-08T12:25:27.898Z,40.24
2018-06-08T12:27:56.670Z,40.76
2018-06-08T12:30:25.441Z,40.37
2018-06-08T12:32:54.235Z,39.58
2018-06-08T12:35:23.019Z,40.63
2018-06-08T12:37:51.817Z,41.34
2018-06-08T12:40:20.622Z,41.03
2018-06-08T12:42:49.415Z,40.65
2018-06-08T12:45:18.202Z,42.43
2018-06-08T12:47:47.024Z,41.68
2018-06-08T12:50:15.821Z,43.31
2018-06-08T12:52:44.620Z,44.86
2018-06-08T12:55:13.388Z,44.48
2018-06-08T12:57:42.158Z,45.99
2018-06-08T13:00:10.952Z,46.19
2018-06-08T13:02:39.691Z,46.32
2018-06-08T13:05:08.444Z,46.32
2018-06-08T13:07:37.223Z,46.82
2018-06-08T13:10:06.079Z,46.59
2018-06-08T13:12:34.835Z,46.35
2018-06-08T13:15:03.663Z,46.04
2018-06-08T13:17:32.430Z,46.64
2018-06-08T13:20:01.207Z,46.06
2018-06-08T13:22:29.961Z,46.92
2018-06-08T13:24:58.862Z,47.26
2018-06-08T13:27:27.646Z,46.65
2018-06-08T13:29:56.406Z,46.77
2018-06-08T13:32:25.253Z,46.15
2018-06-08T13:34:54.003Z,46.00
2018-06-08T13:37:22.789Z,46.31
2018-06-08T13:39:51.570Z,45.86
2018-06-08T13:42:20.356Z,45.89
2018-06-08T13:44:49.116Z,44.58
2018-06-08T13:47:17.870Z,45.82
2018-06-08T13:49:46.652Z,43.66
2018-06-08T13:52:15.417Z,43.61
2018-06-08T13:54:44.239Z,43.27
2018-06-08T13:57:13.024Z,43.30
2018-06-08T13:59:41.885Z,44.05
2018-06-08T14:02:10.626Z,44.20
2018-06-08T14:04:39.453Z,43.99
2018-06-08T14:07:08.229Z,43.90
2018-06-08T14:09:37.405Z,44.51
2018-06-08T14:12:06.189Z,44.96
2018-06-08T14:14:34.948Z,44.95
2018-06-08T14:17:03.888Z,44.23
2018-06-08T14:19:32.675Z,43.48
2018-06-08T14:22:01.661Z,44.25
2018-06-08T14:24:30.477Z,43.70
2018-06-08T14:26:59.324Z,45.03
2018-06-08T14:29:28.103Z,44.51
2018-06-08T14:31:56.879Z,44.80
2018-06-08T14:34:25.659Z,45.10
2018-06-08T14:36:54.440Z,45.19
2018-06-08T14:39:23.364Z,45.45
2018-06-08T14:41:52.117Z,45.54
2018-06-08T14:44:20.893Z,46.76
2018-06-08T14:46:49.716Z,44.71
2018-06-08T14:49:18.492Z,45.74
2018-06-08T14:51:47.236Z,45.90
2018-06-08T14:54:16.013Z,46.60
2018-06-08T14:56:44.817Z,46.84
2018-06-08T14:59:13.629Z,44.49
2018-06-08T15:01:42.481Z,45.79
2018-06-08T15:04:11.287Z,44.73
2018-06-08T15:06:40.059Z,44.28
2018-06-08T15:09:08.844Z,45.24
2018-06-08T15:11:37.644Z,45.94
2018-06-08T15:14:07.479Z,46.23
2018-06-08T15:16:36.235Z,46.30
2018-06-08T15:19:05.060Z,46.27
2018-06-08T15:21:33.830Z,45.96
2018-06-08T15:24:02.630Z,45.18
2018-06-08T15:26:31.427Z,45.31
2018-06-08T15:29:00.236Z,46.22
2018-06-08T15:31:28.987Z,46.16
2018-06-08T15:33:57.790Z,45.46
2018-06-08T15:36:26.589Z,46.09
2018-06-08T15:38:55.362Z,45.33
2018-06-08T15:41:24.127Z,46.32
2018-06-08T15:43:52.908Z,44.62
2018-06-08T15:46:21.745Z,44.71
2018-06-08T15:48:50.495Z,45.22
2018-06-08T15:51:19.271Z,46.58
2018-06-08T15:53:48.076Z,46.82
2018-06-08T15:56:16.878Z,47.72
2018-06-08T15:58:45.681Z,48.13
2018-06-08T16:01:14.472Z,48.31
2018-06-08T16:03:43.260Z,48.52
2018-06-08T16:06:12.048Z,49.30
2018-06-08T16:08:41.021Z,49.54
2018-06-08T16:11:10.348Z,49.66
2018-06-08T16:13:39.133Z,50.30
2018-06-08T16:16:07.956Z,50.28
2018-06-08T16:18:36.735Z,50.27
2018-06-08T16:21:05.568Z,51.22
2018-06-08T16:23:34.340Z,51.21
2018-06-08T16:26:03.132Z,51.91
2018-06-08T16:28:31.889Z,51.57
2018-06-08T16:31:00.778Z,51.54
2018-06-08T16:33:29.577Z,52.09
2018-06-08T16:35:58.350Z,51.41
2018-06-08T16:38:27.156Z,52.25
2018-06-08T16:40:55.960Z,53.09
2018-06-08T16:43:24.732Z,53.06
2018-06-08T16:45:53.507Z,53.14
2018-06-08T16:48:22.319Z,53.41
2018-06-08T16:50:51.108Z,53.33
2018-06-08T16:53:20.000Z,52.94
2018-06-08T16:55:48.756Z,53.74
2018-06-08T16:58:17.521Z,53.24
2018-06-08T17:00:46.287Z,53.38
2018-06-08T17:03:15.052Z,54.01
2018-06-08T17:05:43.838Z,53.32
2018-06-08T17:08:12.580Z,54.03
2018-06-08T17:10:41.364Z,53.68
2018-06-08T17:13:10.145Z,53.90
2018-06-08T17:15:38.988Z,55.41
2018-06-08T17:18:07.882Z,54.61
2018-06-08T17:20:36.641Z,55.04
2018-06-08T17:23:05.466Z,54.26
2018-06-08T17:25:34.268Z,54.13
2018-06-08T17:28:03.064Z,54.41
2018-06-08T17:30:31.827Z,54.86
2018-06-08T17:33:00.582Z,54.87
2018-06-08T17:35:29.371Z,55.25
2018-06-08T17:37:58.196Z,55.67
2018-06-08T17:40:26.961Z,55.52
2018-06-08T17:42:55.701Z,56.24
2018-06-08T17:45:24.681Z,56.74
2018-06-08T17:47:53.443Z,57.01
2018-06-08T17:50:22.512Z,57.14
2018-06-08T17:52:51.324Z,57.56
2018-06-08T17:55:20.139Z,58.01
2018-06-08T17:57:48.917Z,57.98
2018-06-08T18:00:17.731Z,58.46
2018-06-08T18:02:46.526Z,58.54
2018-06-08T18:05:15.383Z,58.98
2018-06-08T18:07:44.181Z,58.82
2018-06-08T18:10:12.974Z,59.25
2018-06-08T18:12:41.792Z,59.97
2018-06-08T18:15:10.697Z,59.57
2018-06-08T18:17:39.588Z,60.39
2018-06-08T18:20:08.398Z,59.39
2018-06-08T18:22:37.292Z,59.83
2018-06-08T18:25:06.212Z,59.77
2018-06-08T18:27:35.018Z,60.27
2018-06-08T18:30:03.929Z,60.82
2018-06-08T18:32:32.733Z,60.88
2018-06-08T18:35:01.529Z,61.31
2018-06-08T18:37:30.313Z,61.42
2018-06-08T18:39:59.153Z,61.36
2018-06-08T18:42:27.959Z,61.54
2018-06-08T18:44:56.791Z,60.61
2018-06-08T18:47:25.569Z,59.95
2018-06-08T18:49:54.399Z,60.40
2018-06-08T18:52:23.163Z,60.98
2018-06-08T18:54:52.025Z,61.59
2018-06-08T18:57:20.827Z,61.63
2018-06-08T18:59:50.520Z,60.78
2018-06-08T19:02:19.309Z,61.31
2018-06-08T19:04:48.107Z,61.12
2018-06-08T19:07:17.014Z,62.03
2018-06-08T19:09:45.838Z,61.45
2018-06-08T19:12:14.593Z,60.22
2018-06-08T19:14:43.424Z,60.74
2018-06-08T19:17:12.253Z,60.14
2018-06-08T19:19:41.056Z,59.80
2018-06-08T19:22:09.864Z,60.65
2018-06-08T19:24:38.670Z,60.17
2018-06-08T19:27:07.532Z,59.49
2018-06-08T19:29:36.442Z,59.32
2018-06-08T19:32:05.232Z,59.75
2018-06-08T19:34:34.123Z,60.71
2018-06-08T19:37:02.985Z,59.88
2018-06-08T19:39:32.408Z,60.61
2018-06-08T19:42:01.204Z,60.67
2018-06-08T19:44:30.061Z,59.97
2018-06-08T19:46:58.891Z,60.00
2018-06-08T19:49:27.689Z,61.17
2018-06-08T19:51:56.592Z,61.13
2018-06-08T19:54:25.382Z,60.84
2018-06-08T19:56:54.165Z,61.32
2018-06-08T19:59:22.947Z,61.98
2018-06-08T20:01:51.752Z,62.33
2018-06-08T20:04:20.502Z,61.35
2018-06-08T20:06:49.338Z,62.13
2018-06-08T20:09:18.106Z,62.03
2018-06-08T20:11:46.873Z,62.73
2018-06-08T20:14:15.818Z,63.31
2018-06-08T20:16:44.709Z,62.81
2018-06-08T20:19:13.509Z,63.13
2018-06-08T20:21:42.315Z,63.12
2018-06-08T20:24:11.126Z,63.02
2018-06-08T20:26:40.062Z,62.97
2018-06-08T20:29:08.880Z,62.68
2018-06-08T20:31:37.690Z,61.68
2018-06-08T20:34:06.521Z,61.58
2018-06-08T20:36:35.417Z,61.97
2018-06-08T20:39:04.706Z,62.27
2018-06-08T20:41:33.513Z,62.77
2018-06-08T20:44:02.292Z,62.75
2018-06-08T20:46:31.112Z,62.69
2018-06-08T20:48:59.889Z,63.22
2018-06-08T20:51:28.684Z,63.61
2018-06-08T20:53:57.448Z,63.95
2018-06-08T20:56:26.224Z,63.20
2018-06-08T20:58:55.091Z,61.84
2018-06-08T21:01:23.867Z,61.73
2018-06-08T21:03:52.640Z,60.54
2018-06-08T21:06:21.404Z,61.33
2018-06-08T21:08:50.180Z,62.41
2018-06-08T21:11:18.933Z,62.57
2018-06-08T21:13:47.797Z,63.28
2018-06-08T21:16:16.592Z,64.22
2018-06-08T21:18:45.378Z,63.75
2018-06-08T21:21:14.224Z,64.01
2018-06-08T21:23:43.047Z,64.00
2018-06-08T21:26:11.843Z,66.27
2018-06-08T21:28:40.617Z,65.05
2018-06-08T21:31:09.515Z,65.41
2018-06-08T21:33:38.279Z,65.11
2018-06-08T21:36:07.066Z,65.27
2018-06-08T21:38:35.885Z,64.19
2018-06-08T21:41:04.690Z,63.52
2018-06-08T21:43:33.504Z,63.28
2018-06-08T21:46:02.258Z,61.87
2018-06-08T21:48:31.109Z,61.81
2018-06-08T21:50:59.923Z,62.41
2018-06-08T21:53:28.723Z,62.40
2018-06-08T21:55:57.486Z,62.88
2018-06-08T21:58:26.221Z,63.67
2018-06-08T22:00:55.045Z,63.99
2018-06-08T22:03:23.891Z,64.65
2018-06-08T22:05:52.754Z,65.42
2018-06-08T22:08:22.463Z,65.73
2018-06-08T22:10:51.280Z,65.80
2018-06-08T22:13:20.030Z,65.80
2018-06-08T22:15:48.800Z,66.03
2018-06-08T22:18:17.614Z,66.52
2018-06-08T22:20:46.483Z,66.48
2018-06-08T22:23:15.258Z,66.86
2018-06-08T22:25:44.032Z,66.68
2018-06-08T22:28:13.520Z,66.23
2018-06-08T22:30:42.300Z,66.60
2018-06-08T22:33:11.091Z,67.82
2018-06-08T22:35:39.862Z,67.18
2018-06-08T22:38:09.263Z,66.79
2018-06-08T22:40:38.036Z,67.04
2018-06-08T22:43:06.787Z,66.78
2018-06-08T22:45:35.528Z,67.18
2018-06-08T22:48:04.328Z,67.42
2018-06-08T22:50:33.199Z,67.63
2018-06-08T22:53:01.956Z,68.21
2018-06-08T22:55:30.714Z,68.06
2018-06-08T22:57:59.471Z,67.79
2018-06-08T23:00:28.243Z,68.11
2018-06-08T23:02:57.042Z,67.51
2018-06-08T23:05:25.824Z,68.12
2018-06-08T23:07:54.575Z,67.57
2018-06-08T23:10:23.329Z,68.10
2018-06-08T23:12:52.227Z,68.66
2018-06-08T23:15:21.001Z,67.72
2018-06-08T23:17:49.773Z,67.85
2018-06-08T23:20:18.525Z,68.05
2018-06-08T23:22:47.916Z,68.31
2018-06-08T23:25:16.669Z,67.74
2018-06-08T23:27:45.419Z,67.50
2018-06-08T23:30:14.157Z,66.70
2018-06-08T23:32:42.931Z,67.10
2018-06-08T23:35:11.734Z,66.95
2018-06-08T23:37:40.498Z,66.52
2018-06-08T23:40:09.271Z,66.93
2018-06-08T23:42:38.035Z,66.63
2018-06-08T23:45:06.809Z,66.93
2018-06-08T23:47:35.554Z,66.43
2018-06-08T23:50:04.383Z,66.57
2018-06-08T23:52:33.188Z,67.17
2018-06-08T23:55:01.952Z,66.80
2018-06-08T23:57:30.818Z,66.42
2018-06-08T23:59:59.584Z,65.65
